Time;durP1;ratioP1;P1;durP2;ratioP2;P2;SDS_P1;SDS_P2;PMS_P1;PMS_P2;Temp;Humidity;BMP_temperature;BMP_pressure;BME280_temperature;BME280_humidity;BME280_pressure;Samples;Min_cycle;Max_cycle;Signal;HPM_P1;HPM_P2
2022/04/11 00:03:37;;;;;;;14.30;8.90;;;;;;;1.56;79.76;98869.27;219831;1279;22640;-75
2022/04/11 00:08:40;;;;;;;13.90;8.40;;;;;;;1.57;79.45;98871.77;219968;1279;22728;-73
2022/04/11 00:13:42;;;;;;;13.90;8.40;;;;;;;1.52;79.45;98872.56;219634;1280;23094;-74
2022/04/11 00:18:45;;;;;;;15.00;8.80;;;;;;;1.47;79.23;98873.54;219675;1279;24251;-75
2022/04/11 00:23:48;;;;;;;12.70;7.30;;;;;;;1.45;79.36;98876.13;219929;1279;24963;-75
2022/04/11 00:28:53;;;;;;;13.20;7.90;;;;;;;1.43;79.05;98877.66;219568;1280;24291;-74
2022/04/11 00:33:59;;;;;;;14.30;8.90;;;;;;;1.40;79.23;98873.75;219684;1279;24201;-74
2022/04/11 00:39:07;;;;;;;10.90;6.90;;;;;;;1.43;79.43;98872.88;219678;1279;22561;-76
2022/04/11 00:44:11;;;;;;;13.00;8.40;;;;;;;1.45;79.31;98874.91;219613;1279;22566;-74
2022/04/11 00:49:17;;;;;;;13.60;7.80;;;;;;;1.48;79.21;98880.44;219722;1279;25409;-73
2022/04/11 00:54:20;;;;;;;12.00;7.10;;;;;;;1.48;79.42;98884.57;219627;1280;22573;-75
2022/04/11 00:59:59;;;;;;;13.00;7.90;;;;;;;1.42;79.05;98887.58;219371;1281;24263;-75
2022/04/11 01:05:07;;;;;;;9.70;6.00;;;;;;;1.28;79.14;98887.70;219705;1279;25448;-74
2022/04/11 01:10:37;;;;;;;16.30;9.20;;;;;;;1.10;79.19;98886.59;219721;1279;22541;-73
2022/04/11 01:15:59;;;;;;;15.00;7.70;;;;;;;0.95;79.02;98892.95;219654;1279;22681;-74
2022/04/11 01:21:10;;;;;;;14.00;8.00;;;;;;;0.81;79.21;98898.73;219754;1279;25435;-74
2022/04/11 01:26:15;;;;;;;13.90;7.80;;;;;;;0.73;79.44;98898.30;219708;1279;23068;-74
2022/04/11 01:31:20;;;;;;;9.40;6.60;;;;;;;0.73;79.80;98902.69;219538;1279;22616;-74
2022/04/11 01:36:27;;;;;;;13.70;7.80;;;;;;;0.74;79.55;98901.34;220006;1278;26365;-75
2022/04/11 01:41:30;;;;;;;13.00;6.30;;;;;;;0.72;79.72;98905.45;219731;1278;22751;-74
2022/04/11 01:46:36;;;;;;;11.30;6.90;;;;;;;0.67;79.83;98904.86;219795;1279;22686;-75
2022/04/11 01:51:48;;;;;;;15.20;7.90;;;;;;;0.62;79.72;98909.34;219807;1278;22700;-75
2022/04/11 01:56:54;;;;;;;11.40;6.60;;;;;;;0.54;79.86;98910.59;219682;1278;22542;-74
2022/04/11 02:02:00;;;;;;;11.20;7.30;;;;;;;0.45;79.45;98913.80;219674;1279;22586;-75
2022/04/11 02:07:14;;;;;;;8.60;6.20;;;;;;;0.36;79.50;98916.21;219981;1277;22652;-74
2022/04/11 02:12:18;;;;;;;12.50;8.10;;;;;;;0.28;79.96;98917.99;219966;1280;22557;-75
2022/04/11 02:17:22;;;;;;;15.50;8.60;;;;;;;0.25;80.13;98918.75;219914;1278;22582;-73
2022/04/11 02:22:50;;;;;;;17.80;10.30;;;;;;;0.26;80.25;98916.07;219783;1280;22509;-74
2022/04/11 02:28:04;;;;;;;16.80;10.80;;;;;;;0.32;80.35;98921.43;219986;1279;23479;-74
2022/04/11 02:33:11;;;;;;;19.60;10.50;;;;;;;0.43;80.46;98924.65;219815;1278;24238;-74
2022/04/11 02:38:43;;;;;;;14.80;8.30;;;;;;;0.57;80.60;98927.39;219077;1282;24332;-75
2022/04/11 02:43:56;;;;;;;13.90;8.00;;;;;;;0.72;80.93;98932.10;219317;1282;25573;-74
2022/04/11 02:48:59;;;;;;;10.50;7.30;;;;;;;0.86;80.70;98932.79;218750;1284;24004;-74
2022/04/11 02:54:07;;;;;;;12.40;8.00;;;;;;;0.98;80.69;98936.23;218992;1282;24835;-75
2022/04/11 02:59:19;;;;;;;17.70;10.30;;;;;;;1.08;80.56;98942.12;218655;1284;24491;-75
2022/04/11 03:04:37;;;;;;;17.90;10.50;;;;;;;1.17;80.52;98943.30;219788;1278;25473;-73
2022/04/11 03:09:44;;;;;;;18.00;10.40;;;;;;;1.19;80.30;98945.27;219873;1277;22553;-74
2022/04/11 03:14:50;;;;;;;17.40;9.40;;;;;;;1.19;80.15;98948.43;219940;1278;24253;-74
2022/04/11 03:19:54;;;;;;;11.30;7.20;;;;;;;1.18;80.46;98946.54;219744;1279;22620;-74
2022/04/11 03:25:06;;;;;;;13.40;7.70;;;;;;;1.11;80.14;98945.08;219901;1278;23980;-75
2022/04/11 03:30:11;;;;;;;14.20;9.10;;;;;;;0.97;80.15;98952.46;220023;1277;22587;-74
2022/04/11 03:35:15;;;;;;;17.10;10.50;;;;;;;0.81;80.06;98955.97;219826;1278;22546;-74
2022/04/11 03:40:19;;;;;;;14.50;10.20;;;;;;;0.67;80.06;98961.25;219724;1280;22707;-74
2022/04/11 03:45:25;;;;;;;16.30;9.00;;;;;;;0.48;80.04;98961.07;219707;1280;22700;-74
2022/04/11 03:50:29;;;;;;;11.90;8.20;;;;;;;0.29;80.07;98970.09;219709;1279;24429;-75
2022/04/11 03:55:35;;;;;;;12.10;7.50;;;;;;;0.10;80.26;98974.03;219764;1279;22602;-75
2022/04/11 04:00:42;;;;;;;19.60;10.60;;;;;;;-0.01;80.61;98980.37;219996;1280;22697;-75
2022/04/11 04:05:56;;;;;;;18.20;10.70;;;;;;;-0.06;80.62;98986.31;219533;1279;22615;-75
2022/04/11 04:11:07;;;;;;;17.10;11.30;;;;;;;-0.10;81.20;98992.39;219900;1279;22560;-74
2022/04/11 04:16:16;;;;;;;19.80;12.00;;;;;;;-0.13;81.15;98996.98;219974;1279;24123;-74
2022/04/11 04:21:27;;;;;;;22.00;12.30;;;;;;;-0.14;81.42;98998.86;219946;1279;22556;-75
2022/04/11 04:26:41;;;;;;;19.40;12.20;;;;;;;-0.14;81.32;99004.97;219932;1279;25447;-75
2022/04/11 04:32:00;;;;;;;27.20;14.60;;;;;;;-0.11;81.58;99000.13;219887;1280;25374;-74
2022/04/11 04:42:31;;;;;;;31.10;17.50;;;;;;;-0.01;81.68;99012.30;220238;1280;22614;-73
2022/04/11 04:47:46;;;;;;;33.20;17.40;;;;;;;0.03;81.91;99020.73;220039;1281;25261;-75
2022/04/11 04:52:52;;;;;;;26.40;16.10;;;;;;;0.08;81.82;99029.70;219938;1280;23841;-74
2022/04/11 04:57:55;;;;;;;25.60;14.50;;;;;;;0.15;81.94;99031.04;219841;1281;22537;-74
2022/04/11 05:03:05;;;;;;;;;;;;;;;0.23;82.04;99039.60;220137;1281;22741;-73
2022/04/11 05:08:12;;;;;;;20.30;12.70;;;;;;;0.31;82.16;99043.89;220007;1280;25314;-74
2022/04/11 05:13:31;;;;;;;21.30;12.40;;;;;;;0.42;82.22;99045.30;220242;1279;22703;-74
2022/04/11 05:18:39;;;;;;;21.10;12.20;;;;;;;0.55;82.30;99043.70;219861;1279;23838;-75
2022/04/11 05:23:45;;;;;;;22.00;13.30;;;;;;;0.71;82.57;99050.50;219753;1279;22607;-74
2022/04/11 05:29:07;;;;;;;18.90;12.00;;;;;;;0.90;82.39;99052.55;219553;1283;22628;-74
2022/04/11 05:34:14;;;;;;;20.00;12.00;;;;;;;1.07;82.50;99057.16;219444;1283;22545;-74
2022/04/11 05:39:24;;;;;;;18.80;11.90;;;;;;;1.26;82.13;99061.95;219647;1282;22557;-74
2022/04/11 05:44:30;;;;;;;13.70;8.70;;;;;;;1.48;82.36;99070.33;219693;1282;23413;-73
2022/04/11 05:49:33;;;;;;;11.40;7.90;;;;;;;1.75;82.40;99069.05;219262;1284;25247;-74
2022/04/11 05:54:42;;;;;;;13.50;8.50;;;;;;;2.11;82.14;99060.52;220495;1284;22646;-73
2022/04/11 05:59:53;;;;;;;12.90;7.90;;;;;;;2.35;81.69;99055.36;220440;1281;25378;-73
2022/04/11 06:05:14;;;;;;;10.10;6.00;;;;;;;2.60;81.20;99052.48;221462;1280;25377;-75
2022/04/11 06:10:21;;;;;;;9.00;5.50;;;;;;;2.93;81.00;99049.30;221376;1278;22716;-74
2022/04/11 06:15:24;;;;;;;8.30;4.40;;;;;;;3.37;80.91;99060.79;221380;1281;23231;-74
2022/04/11 06:20:50;;;;;;;6.90;4.00;;;;;;;3.86;80.31;99065.42;220741;1279;22851;-74
2022/04/11 06:26:09;;;;;;;7.00;3.70;;;;;;;4.06;79.00;99062.45;221556;1281;22566;-74
2022/04/11 06:31:24;;;;;;;5.60;3.20;;;;;;;4.13;78.31;99064.91;221594;1278;22663;-75
2022/04/11 06:36:45;;;;;;;9.00;3.90;;;;;;;4.27;77.78;99070.45;221308;1278;24286;-74
2022/04/11 06:42:01;;;;;;;9.20;3.80;;;;;;;4.44;77.32;99080.82;221751;1279;22588;-75
2022/04/11 06:47:27;;;;;;;7.70;5.20;;;;;;;4.54;76.75;99084.42;221991;1280;22552;-75
2022/04/11 06:52:40;;;;;;;5.70;3.60;;;;;;;4.62;76.55;99082.58;221706;1279;22565;-75
2022/04/11 06:57:43;;;;;;;7.00;4.60;;;;;;;4.61;75.76;99090.54;222014;1280;22552;-75
2022/04/11 07:02:57;;;;;;;6.80;4.40;;;;;;;4.61;75.77;99087.14;221695;1279;23135;-74
2022/04/11 07:08:08;;;;;;;6.40;3.60;;;;;;;4.72;75.63;99089.48;221973;1278;22626;-73
2022/04/11 07:13:11;;;;;;;11.90;4.50;;;;;;;4.95;75.60;99091.26;222304;1277;22655;-75
2022/04/11 07:18:33;;;;;;;6.30;3.70;;;;;;;5.27;75.25;99093.60;221162;1277;22577;-76
2022/04/11 07:23:54;;;;;;;2.70;2.00;;;;;;;5.57;75.16;99091.29;221441;1277;22615;-74
2022/04/11 07:28:59;;;;;;;4.20;1.80;;;;;;;5.60;73.00;99099.06;221011;1278;23193;-73
2022/04/11 07:34:13;;;;;;;4.10;1.70;;;;;;;5.39;72.91;99100.98;221745;1277;22546;-74
2022/04/11 07:39:19;;;;;;;3.50;1.80;;;;;;;5.31;73.12;99105.41;221340;1279;22705;-74
2022/04/11 07:44:29;;;;;;;4.30;2.50;;;;;;;5.21;72.59;99108.77;222246;1279;22722;-73
2022/04/11 07:49:34;;;;;;;5.20;2.40;;;;;;;5.07;72.89;99111.45;221958;1279;25370;-73
2022/04/11 07:54:36;;;;;;;3.20;1.90;;;;;;;5.12;73.43;99112.36;221618;1279;22564;-74
2022/04/11 07:59:42;;;;;;;3.70;2.00;;;;;;;5.37;73.55;99110.27;222068;1277;23133;-74
2022/04/11 08:05:12;;;;;;;3.10;2.00;;;;;;;5.82;73.71;99108.11;222652;1279;22538;-75
2022/04/11 08:10:26;;;;;;;4.20;2.30;;;;;;;6.29;73.18;99106.39;221576;1279;22545;-74
2022/04/11 08:15:50;;;;;;;4.50;2.20;;;;;;;6.54;72.08;99104.00;222007;1279;22601;-73
2022/04/11 08:20:53;;;;;;;6.20;2.20;;;;;;;6.65;72.20;99106.12;221775;1278;22603;-74
2022/04/11 08:25:59;;;;;;;6.50;2.10;;;;;;;6.77;71.28;99106.73;221986;1280;22773;-74
2022/04/11 08:31:09;;;;;;;5.20;2.70;;;;;;;6.76;70.44;99109.61;221039;1280;22683;-74
2022/04/11 08:36:16;;;;;;;3.60;1.80;;;;;;;6.87;70.05;99100.63;221772;1279;22636;-74
2022/04/11 08:41:22;;;;;;;3.50;2.50;;;;;;;6.94;69.01;99101.38;222146;1278;22565;-74
2022/04/11 08:46:31;;;;;;;5.10;3.60;;;;;;;7.11;68.26;99100.64;222197;1280;22601;-75
2022/04/11 08:51:36;;;;;;;5.80;2.90;;;;;;;7.43;66.81;99101.76;219986;1277;22777;-72
2022/04/11 08:56:42;;;;;;;4.00;2.90;;;;;;;7.86;66.70;99100.17;219661;1279;22580;-72
2022/04/11 09:01:45;;;;;;;5.10;3.30;;;;;;;8.01;65.36;99109.34;219580;1280;22723;-72
2022/04/11 09:06:57;;;;;;;4.30;2.70;;;;;;;8.10;65.15;99100.73;219418;1280;22579;-72
2022/04/11 09:12:02;;;;;;;3.30;2.00;;;;;;;8.30;64.37;99099.63;219646;1279;25406;-72
2022/04/11 09:17:05;;;;;;;2.50;2.10;;;;;;;8.39;62.89;99103.17;219443;1279;22568;-71
2022/04/11 09:22:08;;;;;;;2.40;2.00;;;;;;;8.26;61.89;99093.76;219786;1279;22697;-72
2022/04/11 09:27:25;;;;;;;4.70;2.00;;;;;;;8.28;62.27;99089.44;219785;1277;25456;-73
2022/04/11 09:32:27;;;;;;;3.00;1.90;;;;;;;8.35;61.07;99091.15;219724;1279;22543;-72
2022/04/11 09:37:30;;;;;;;4.10;2.40;;;;;;;8.13;61.16;99099.17;219575;1279;22582;-72
2022/04/11 09:42:32;;;;;;;3.00;2.20;;;;;;;7.89;61.50;99097.52;219662;1278;25254;-71
2022/04/11 09:47:57;;;;;;;4.10;2.60;;;;;;;7.94;61.49;99105.42;219606;1279;24302;-71
2022/04/11 09:53:14;;;;;;;4.10;2.40;;;;;;;8.20;61.70;99099.30;219484;1277;22651;-71
2022/04/11 09:58:22;;;;;;;3.40;2.20;;;;;;;8.52;60.90;99095.30;220017;1279;22584;-72
2022/04/11 10:03:27;;;;;;;2.70;2.00;;;;;;;8.63;60.52;99090.70;219763;1279;22659;-71
2022/04/11 10:08:35;;;;;;;4.00;2.40;;;;;;;8.94;60.43;99086.57;219336;1279;22618;-70
2022/04/11 10:13:41;;;;;;;2.70;1.80;;;;;;;9.28;59.35;99082.17;219722;1279;23040;-71
2022/04/11 10:18:47;;;;;;;4.30;2.10;;;;;;;9.61;57.54;99085.75;219499;1279;23048;-72
2022/04/11 10:23:58;;;;;;;2.40;1.30;;;;;;;9.19;56.06;99100.16;219696;1279;23059;-70
2022/04/11 10:29:31;;;;;;;1.20;0.90;;;;;;;8.47;56.70;99098.53;219598;1279;22544;-69
2022/04/11 10:34:49;;;;;;;3.40;1.90;;;;;;;8.17;58.55;99101.80;218605;1279;22806;-71
2022/04/11 10:40:17;;;;;;;5.30;2.00;;;;;;;8.43;60.03;99094.63;218137;1279;22558;-71
2022/04/11 10:45:31;;;;;;;2.10;1.30;;;;;;;8.60;58.28;99084.09;219408;1279;26477;-70
2022/04/11 10:50:45;;;;;;;2.80;1.60;;;;;;;8.41;57.30;99079.84;219690;1278;25374;-70
2022/04/11 10:56:08;;;;;;;3.90;2.30;;;;;;;8.10;57.42;99081.61;219479;1277;22753;-71
2022/04/11 11:01:14;;;;;;;4.30;1.90;;;;;;;8.19;59.07;99081.63;219958;1278;25441;-71
2022/04/11 11:06:22;;;;;;;4.00;1.60;;;;;;;8.51;58.47;99080.73;219365;1279;26358;-71
2022/04/11 11:11:38;;;;;;;3.00;1.80;;;;;;;8.61;57.85;99074.42;219688;1277;22618;-71
2022/04/11 11:17:01;;;;;;;1.10;0.90;;;;;;;8.50;56.98;99080.55;219658;1278;23388;-71
2022/04/11 11:22:04;;;;;;;3.40;1.20;;;;;;;8.11;58.13;99085.08;219655;1278;22548;-71
2022/04/11 11:27:08;;;;;;;2.20;1.10;;;;;;;8.20;59.65;99076.73;219737;1278;22572;-71
2022/04/11 11:32:46;;;;;;;2.20;1.00;;;;;;;8.55;57.78;99075.55;219808;1279;26523;-69
2022/04/11 11:38:11;;;;;;;2.10;1.10;;;;;;;8.47;55.25;99073.88;218055;1279;25605;-68
2022/04/11 11:43:16;;;;;;;1.60;1.00;;;;;;;8.35;55.93;99066.91;218291;1279;23968;-68
2022/04/11 11:48:57;;;;;;;3.60;0.70;;;;;;;8.44;55.81;99062.66;218295;1278;22745;-68
2022/04/11 11:54:12;;;;;;;;;;;;;;;;;;;;;
2022/04/11 12:00:34;;;;;;;1.60;0.90;;;;;;;8.27;52.97;99059.59;218486;1279;24172;-69
2022/04/11 12:06:22;;;;;;;1.00;0.70;;;;;;;7.90;52.98;99062.16;218335;1278;24264;-69
2022/04/11 12:12:09;;;;;;;1.70;0.90;;;;;;;7.77;53.62;99061.73;218246;1279;22623;-69
2022/04/11 12:17:59;;;;;;;4.30;1.10;;;;;;;7.65;54.03;99048.58;218858;1279;26304;-69
2022/04/11 12:23:07;;;;;;;6.60;1.50;;;;;;;7.72;55.34;99044.23;218331;1279;22566;-69
2022/04/11 12:28:24;;;;;;;1.50;1.10;;;;;;;8.11;55.31;99034.17;218312;1279;22541;-69
2022/04/11 12:33:29;;;;;;;2.30;1.10;;;;;;;8.54;54.85;99026.89;218189;1279;22702;-68
2022/04/11 12:39:11;;;;;;;2.90;1.30;;;;;;;8.96;54.84;99014.58;218412;1279;22572;-68
2022/04/11 12:44:38;;;;;;;33.60;22.40;;;;;;;9.54;53.95;99005.37;217782;1279;25320;-70
2022/04/11 12:49:51;;;;;;;3.50;1.40;;;;;;;9.65;51.64;99002.65;218146;1279;22567;-68
2022/04/11 12:54:59;;;;;;;1.90;1.60;;;;;;;9.51;50.60;99002.45;218352;1279;22537;-70
2022/04/11 13:00:23;;;;;;;2.00;1.00;;;;;;;9.33;50.94;99002.33;218168;1278;25331;-71
2022/04/11 13:05:42;;;;;;;2.90;1.50;;;;;;;9.17;50.44;99006.40;218331;1278;22557;-70
2022/04/11 13:10:58;;;;;;;4.10;1.20;;;;;;;9.00;50.26;99001.02;219606;1278;22622;-71
2022/04/11 13:21:48;;;;;;;3.00;1.60;;;;;;;8.91;50.46;98992.21;219740;1279;22779;-70
2022/04/11 13:26:56;;;;;;;2.40;1.50;;;;;;;9.05;50.99;98989.12;219672;1279;22718;-70
2022/04/11 13:32:08;;;;;;;1.80;1.10;;;;;;;9.40;50.06;98980.58;219437;1279;23440;-69
2022/04/11 13:37:38;;;;;;;1.90;1.00;;;;;;;9.43;48.30;98982.13;218485;1279;25556;-69
2022/04/11 13:42:43;;;;;;;1.60;0.80;;;;;;;9.19;47.45;98978.39;218239;1279;22541;-70
2022/04/11 13:48:18;;;;;;;3.30;1.60;;;;;;;9.03;48.03;98984.38;219688;1278;24255;-70
2022/04/11 13:53:38;;;;;;;2.60;1.20;;;;;;;8.92;48.19;98984.41;219902;1278;24625;-69
2022/04/11 13:58:43;;;;;;;2.90;1.60;;;;;;;8.80;49.04;98983.64;218318;1279;24212;-70
2022/04/11 14:04:02;;;;;;;2.50;1.50;;;;;;;8.71;49.29;98980.45;218165;1279;24425;-70
2022/04/11 14:09:12;;;;;;;1.60;1.20;;;;;;;8.73;49.10;98979.27;218845;1279;22699;-71
2022/04/11 14:14:43;;;;;;;3.30;1.80;;;;;;;8.90;49.06;98975.55;218696;1279;22569;-71
2022/04/11 14:19:48;;;;;;;4.70;1.90;;;;;;;9.09;49.00;98970.45;219336;1279;22591;-71
2022/04/11 14:24:54;;;;;;;2.40;1.60;;;;;;;9.24;48.98;98967.98;219472;1279;22550;-71
2022/04/11 14:29:59;;;;;;;3.30;1.80;;;;;;;9.32;48.64;98963.77;219609;1279;22559;-72
2022/04/11 14:35:08;;;;;;;4.10;2.40;;;;;;;9.42;49.30;98959.88;219534;1277;22725;-70
2022/04/11 14:40:17;;;;;;;2.60;1.90;;;;;;;9.52;49.31;98952.55;219538;1277;22563;-71
2022/04/11 14:45:26;;;;;;;10.30;7.50;;;;;;;9.71;49.38;98941.14;219640;1279;22589;-70
2022/04/11 14:50:36;;;;;;;4.90;2.30;;;;;;;9.99;49.79;98935.52;219305;1279;22572;-71
2022/04/11 14:55:47;;;;;;;5.80;3.10;;;;;;;10.37;49.16;98927.97;219313;1279;24547;-70
2022/04/11 15:00:50;;;;;;;5.40;2.40;;;;;;;10.50;48.41;98925.23;219187;1279;22570;-70
2022/04/11 15:05:54;;;;;;;2.30;1.60;;;;;;;10.44;48.21;98928.23;219627;1279;23364;-70
2022/04/11 15:11:00;;;;;;;2.50;1.30;;;;;;;10.34;47.47;98925.77;219091;1279;22553;-71
2022/04/11 15:16:12;;;;;;;2.30;1.10;;;;;;;10.18;47.68;98924.93;219492;1279;22571;-71
2022/04/11 15:21:15;;;;;;;2.50;1.40;;;;;;;9.98;47.98;98930.13;219564;1279;22549;-71
2022/04/11 15:26:34;;;;;;;2.20;1.30;;;;;;;9.82;48.31;98921.79;219600;1279;22582;-70
2022/04/11 15:31:46;;;;;;;3.90;1.80;;;;;;;9.83;48.54;98921.52;219479;1279;22671;-70
2022/04/11 15:36:52;;;;;;;3.70;2.00;;;;;;;9.67;48.48;98920.67;219356;1279;25553;-71
2022/04/11 15:42:02;;;;;;;3.90;2.10;;;;;;;9.51;49.17;98921.33;219424;1279;22589;-70
2022/04/11 15:47:11;;;;;;;3.00;1.90;;;;;;;9.34;49.42;98922.38;218539;1278;24252;-71
2022/04/11 15:52:15;;;;;;;2.50;1.70;;;;;;;9.19;49.89;98926.63;219036;1279;22568;-70
2022/04/11 15:57:23;;;;;;;2.20;1.70;;;;;;;9.09;50.17;98923.00;219419;1279;23096;-70
2022/04/11 16:02:28;;;;;;;4.00;2.10;;;;;;;8.99;50.60;98923.63;218310;1281;22659;-70
2022/04/11 16:07:33;;;;;;;3.20;1.60;;;;;;;8.89;50.77;98921.73;218594;1279;25380;-70
2022/04/11 16:12:36;;;;;;;14.50;9.80;;;;;;;8.73;50.66;98919.23;218717;1279;23810;-70
2022/04/11 16:17:38;;;;;;;3.30;2.30;;;;;;;8.59;51.09;98918.31;219354;1277;22487;-70
2022/04/11 16:22:40;;;;;;;4.10;2.50;;;;;;;8.48;51.22;98915.30;219272;1279;25512;-70
2022/04/11 16:27:43;;;;;;;3.90;1.90;;;;;;;8.42;51.61;98917.73;219457;1279;25326;-70
2022/04/11 16:32:45;;;;;;;3.30;1.70;;;;;;;8.38;51.93;98919.94;219506;1278;22825;-70
2022/04/11 16:37:47;;;;;;;3.00;1.90;;;;;;;8.31;51.92;98921.02;219550;1277;22675;-70
2022/04/11 16:42:51;;;;;;;2.10;1.90;;;;;;;8.25;52.02;98921.60;219387;1277;22764;-71
2022/04/11 16:47:53;;;;;;;2.00;1.50;;;;;;;8.19;52.36;98925.04;219452;1277;22619;-71
2022/04/11 16:52:58;;;;;;;3.40;1.60;;;;;;;8.09;52.60;98932.68;219570;1277;25414;-71
2022/04/11 16:58:01;;;;;;;4.10;2.00;;;;;;;8.01;52.50;98933.85;219374;1277;22581;-70
2022/04/11 17:03:05;;;;;;;2.40;1.80;;;;;;;7.93;53.15;98936.20;218432;1277;24312;-71
2022/04/11 17:08:09;;;;;;;2.90;2.00;;;;;;;7.84;53.35;98937.41;219384;1277;25371;-71
2022/04/11 17:13:13;;;;;;;4.70;2.70;;;;;;;7.76;53.34;98936.66;219570;1278;22576;-71
2022/04/11 17:18:31;;;;;;;6.30;2.50;;;;;;;7.69;53.69;98942.05;219567;1278;25265;-70
2022/04/11 17:23:37;;;;;;;;;;;;;;;7.63;54.18;98942.69;219469;1278;25283;-71
2022/04/11 17:28:39;;;;;;;6.40;3.00;;;;;;;7.57;54.27;98940.48;219523;1277;25384;-70
2022/04/11 17:34:08;;;;;;;6.50;3.20;;;;;;;7.48;54.57;98939.29;218533;1279;24124;-71
2022/04/11 17:39:20;;;;;;;4.80;3.20;;;;;;;7.38;54.70;98944.18;218574;1279;22687;-72
2022/04/11 17:44:23;;;;;;;7.30;2.80;;;;;;;7.30;54.68;98949.33;218635;1279;24716;-70
2022/04/11 17:49:29;;;;;;;4.70;3.00;;;;;;;7.22;55.06;98952.81;219445;1279;25418;-72
2022/04/11 17:54:31;;;;;;;3.50;2.70;;;;;;;7.16;55.60;98956.20;218572;1279;22532;-71
2022/04/11 17:59:43;;;;;;;9.00;2.90;;;;;;;7.11;56.03;98962.16;219732;1279;22995;-70
2022/04/11 18:04:57;;;;;;;8.70;4.50;;;;;;;7.07;56.77;98967.20;219476;1279;22543;-70
2022/04/11 18:09:59;;;;;;;7.40;4.10;;;;;;;7.02;56.95;98969.73;219204;1279;24278;-69
2022/04/11 18:15:15;;;;;;;9.20;4.30;;;;;;;6.91;56.84;98975.48;218574;1279;22544;-71
2022/04/11 18:20:31;;;;;;;6.60;3.90;;;;;;;6.81;57.25;98980.77;219765;1279;26030;-71
2022/04/11 18:25:38;;;;;;;5.60;3.60;;;;;;;6.75;57.94;98988.72;219632;1279;22567;-70
2022/04/11 18:36:12;;;;;;;7.80;4.00;;;;;;;6.72;58.90;98995.25;219539;1278;24293;-71
2022/04/11 18:41:20;;;;;;;6.10;3.90;;;;;;;6.72;58.87;98999.84;219571;1278;25383;-74
2022/04/11 18:46:27;;;;;;;8.70;4.60;;;;;;;6.73;59.15;99003.77;219378;1278;22563;-72
2022/04/11 18:51:34;;;;;;;12.80;7.00;;;;;;;6.72;59.06;99012.66;219583;1278;22604;-70
2022/04/11 18:56:44;;;;;;;21.80;13.60;;;;;;;6.65;58.62;99012.19;219622;1278;22594;-71
2022/04/11 19:01:58;;;;;;;24.90;14.80;;;;;;;6.61;58.93;99009.56;219432;1278;24319;-72
2022/04/11 19:07:22;;;;;;;28.30;15.10;;;;;;;6.59;59.07;99007.20;219472;1280;22962;-70
2022/04/11 19:12:34;;;;;;;29.50;17.10;;;;;;;6.58;59.93;99004.69;219468;1278;24200;-70
2022/04/11 19:17:39;;;;;;;33.80;21.60;;;;;;;6.55;60.28;99001.65;219626;1280;22644;-71
2022/04/11 19:22:42;;;;;;;52.20;30.60;;;;;;;6.47;59.85;99001.73;219163;1277;24439;-70
2022/04/11 19:27:50;;;;;;;107.90;54.10;;;;;;;6.34;60.05;98999.58;219151;1277;405781;-71
2022/04/11 19:33:13;;;;;;;114.90;59.00;;;;;;;6.23;60.26;98995.97;219558;1278;24197;-71
2022/04/11 19:38:20;;;;;;;105.10;55.60;;;;;;;6.13;60.76;98994.36;219805;1279;22542;-71
2022/04/11 19:43:23;;;;;;;102.60;51.80;;;;;;;6.11;60.97;98993.23;219744;1279;22626;-70
2022/04/11 19:53:52;;;;;;;73.90;40.30;;;;;;;6.10;61.56;99003.01;219453;1279;22615;-70
2022/04/11 19:58:57;;;;;;;49.90;30.00;;;;;;;6.12;61.60;99004.56;219688;1279;22630;-71
2022/04/11 20:04:02;;;;;;;49.40;28.20;;;;;;;6.10;61.41;98998.17;219454;1279;23118;-70
2022/04/11 20:09:06;;;;;;;44.90;25.80;;;;;;;6.11;61.27;99000.89;219330;1279;22675;-70
2022/04/11 20:14:12;;;;;;;66.00;38.40;;;;;;;6.10;61.31;99001.25;219465;1279;22572;-71
2022/04/11 20:19:15;;;;;;;42.60;25.70;;;;;;;6.06;61.15;99000.73;219374;1279;22606;-71
2022/04/11 20:24:20;;;;;;;47.50;24.70;;;;;;;5.97;60.92;98999.52;219286;1279;23057;-71
2022/04/11 20:29:22;;;;;;;42.90;25.70;;;;;;;5.85;60.75;99005.83;219341;1280;23067;-70
2022/04/11 20:34:25;;;;;;;44.40;24.80;;;;;;;5.74;60.74;99014.39;219635;1278;22636;-70
2022/04/11 20:39:27;;;;;;;55.10;28.80;;;;;;;5.64;60.47;99010.19;218713;1280;24781;-69
2022/04/11 20:44:30;;;;;;;51.10;29.10;;;;;;;5.56;61.02;99004.27;218705;1278;24634;-70
2022/04/11 20:49:53;;;;;;;64.00;34.10;;;;;;;5.47;61.17;99003.75;218921;1280;22901;-70
2022/04/11 21:00:41;;;;;;;81.50;39.50;;;;;;;5.34;61.69;99003.23;218795;1280;24261;-70
2022/04/11 21:06:03;;;;;;;82.80;41.60;;;;;;;5.27;62.12;98999.80;218705;1278;23074;-71
2022/04/11 21:11:15;;;;;;;87.00;43.10;;;;;;;5.21;62.72;98994.35;219329;1278;22698;-71
2022/04/11 21:16:20;;;;;;;84.70;42.50;;;;;;;5.15;62.62;98994.34;219509;1278;22615;-70
2022/04/11 21:21:26;;;;;;;90.00;43.50;;;;;;;5.11;62.75;98995.40;219618;1278;25405;-71
2022/04/11 21:26:33;;;;;;;87.80;43.90;;;;;;;5.08;62.75;98997.17;219429;1278;23851;-70
2022/04/11 21:31:41;;;;;;;92.20;44.70;;;;;;;5.06;63.10;98999.48;219525;1278;24114;-71
2022/04/11 21:36:44;;;;;;;99.50;45.70;;;;;;;5.02;63.07;99002.56;219590;1280;22587;-70
2022/04/11 21:41:54;;;;;;;97.50;45.30;;;;;;;4.95;63.42;99004.13;219533;1279;26508;-71
2022/04/11 21:46:57;;;;;;;82.00;40.70;;;;;;;4.82;63.47;99006.87;219277;1279;22709;-71
2022/04/11 21:52:03;;;;;;;72.50;36.50;;;;;;;4.69;63.16;99001.80;219247;1279;25265;-70
2022/04/11 21:57:06;;;;;;;77.30;40.70;;;;;;;4.57;63.80;99002.42;219709;1279;24253;-70
2022/04/11 22:02:09;;;;;;;70.90;36.20;;;;;;;4.47;63.87;99004.98;219596;1279;22999;-70
2022/04/11 22:07:15;;;;;;;76.00;38.30;;;;;;;4.39;63.92;99003.85;219543;1279;22557;-71
2022/04/11 22:12:18;;;;;;;74.50;38.60;;;;;;;4.34;64.16;99009.55;219139;1279;22583;-70
2022/04/11 22:17:20;;;;;;;82.60;39.90;;;;;;;4.31;64.36;99010.42;219086;1280;22617;-70
2022/04/11 22:22:47;;;;;;;86.20;42.60;;;;;;;4.23;64.36;99013.36;219294;1279;22567;-70
2022/04/11 22:28:00;;;;;;;94.20;46.50;;;;;;;4.14;64.74;99017.41;218389;1279;25264;-70
2022/04/11 22:33:03;;;;;;;86.80;42.20;;;;;;;4.06;64.76;99018.70;218744;1279;25268;-69
2022/04/11 22:38:21;;;;;;;105.90;49.30;;;;;;;3.88;64.51;99014.74;218819;1278;22601;-71
2022/04/11 22:43:34;;;;;;;101.70;47.80;;;;;;;3.69;64.73;99015.15;218783;1278;22565;-70
2022/04/11 22:48:53;;;;;;;102.10;49.80;;;;;;;3.55;65.13;99010.11;219750;1278;25387;-70
2022/04/11 22:54:07;;;;;;;95.40;45.90;;;;;;;3.43;65.45;99006.94;218636;1278;25368;-69
2022/04/11 22:59:09;;;;;;;97.10;44.70;;;;;;;3.32;65.64;99006.59;218865;1278;22604;-71
2022/04/11 23:04:23;;;;;;;88.10;42.10;;;;;;;3.21;65.75;99011.73;218985;1278;25466;-69
2022/04/11 23:09:28;;;;;;;97.30;45.10;;;;;;;3.13;66.00;99013.84;218617;1278;24143;-70
2022/04/11 23:14:30;;;;;;;102.70;47.20;;;;;;;3.08;66.63;99015.73;218823;1278;22546;-69
2022/04/11 23:19:33;;;;;;;95.10;46.50;;;;;;;3.07;67.01;99012.61;218595;1278;24638;-70
2022/04/11 23:24:36;;;;;;;105.30;48.50;;;;;;;3.02;67.19;99004.48;218644;1279;22542;-69
2022/04/11 23:29:38;;;;;;;106.30;48.90;;;;;;;2.95;67.26;99004.38;218398;1278;25383;-69
2022/04/11 23:34:44;;;;;;;96.40;46.10;;;;;;;2.84;67.81;98997.20;218810;1277;25379;-70
2022/04/11 23:39:46;;;;;;;100.70;47.50;;;;;;;2.72;68.00;98996.70;218818;1279;25259;-70
2022/04/11 23:44:48;;;;;;;98.00;45.60;;;;;;;2.61;68.35;98994.59;218779;1278;22712;-70
2022/04/11 23:49:50;;;;;;;95.20;44.20;;;;;;;2.49;68.34;98992.80;218802;1278;22540;-70
2022/04/11 23:54:53;;;;;;;89.00;41.30;;;;;;;2.39;68.72;98984.84;219738;1278;22555;-69
